Time;durP1;ratioP1;P1;durP2;ratioP2;P2;SDS_P1;SDS_P2;PMS_P1;PMS_P2;Temp;Humidity;BMP_temperature;BMP_pressure;BME280_temperature;BME280_humidity;BME280_pressure;Samples;Min_cycle;Max_cycle;Signal;HPM_P1;HPM_P2
2022/11/20 00:01:28;;;;;;;5.95;3.25;;;5.40;99.90;;;;;;5034273;28;20072;-46
2022/11/20 00:03:57;;;;;;;5.20;3.13;;;5.40;99.90;;;;;;5047045;28;20582;-47
2022/11/20 00:06:25;;;;;;;5.32;2.60;;;5.30;99.90;;;;;;5054154;28;20091;-46
2022/11/20 00:08:55;;;;;;;3.38;2.17;;;5.20;99.90;;;;;;5048450;28;20124;-46
2022/11/20 00:11:23;;;;;;;5.90;2.38;;;5.30;99.90;;;;;;5043094;28;20486;-48
2022/11/20 00:13:53;;;;;;;7.57;2.47;;;5.30;99.90;;;;;;5050844;28;20065;-47
2022/11/20 00:16:22;;;;;;;6.32;2.80;;;5.40;99.90;;;;;;5048006;28;20067;-47
2022/11/20 00:18:50;;;;;;;5.13;2.72;;;5.40;99.90;;;;;;5035927;28;20128;-47
2022/11/20 00:21:25;;;;;;;3.53;1.88;;;5.30;99.90;;;;;;5047946;28;20378;-46
2022/11/20 00:23:54;;;;;;;4.90;2.58;;;5.30;99.90;;;;;;5033767;28;20046;-47
2022/11/20 00:26:22;;;;;;;8.63;2.25;;;5.30;99.90;;;;;;5044487;28;20552;-47
2022/11/20 00:28:52;;;;;;;7.13;3.08;;;5.40;99.90;;;;;;5045224;28;20086;-47
2022/11/20 00:31:19;;;;;;;4.20;2.38;;;5.50;99.90;;;;;;5047439;28;20044;-47
2022/11/20 00:33:46;;;;;;;5.28;2.60;;;5.50;99.90;;;;;;5067169;22;20441;-47
2022/11/20 00:36:16;;;;;;;4.68;2.63;;;5.50;99.90;;;;;;5052984;28;20045;-47
2022/11/20 00:38:44;;;;;;;5.85;3.00;;;5.50;99.90;;;;;;5052521;28;20045;-48
2022/11/20 00:41:15;;;;;;;10.90;3.83;;;5.30;99.90;;;;;;5051366;28;20041;-48
2022/11/20 00:43:42;;;;;;;5.60;3.60;;;5.30;99.90;;;;;;5052344;28;20041;-47
2022/11/20 00:46:13;;;;;;;4.55;3.22;;;5.30;99.90;;;;;;5052600;28;20037;-47
2022/11/20 00:48:41;;;;;;;5.45;3.00;;;5.30;99.90;;;;;;5046496;28;20037;-48
2022/11/20 00:51:08;;;;;;;4.47;2.80;;;5.30;99.90;;;;;;5052706;28;20148;-46
2022/11/20 00:53:34;;;;;;;5.55;3.25;;;5.30;99.90;;;;;;5044366;28;20048;-46
2022/11/20 00:56:05;;;;;;;5.80;3.58;;;5.30;99.90;;;;;;5050905;28;20102;-46
2022/11/20 00:58:34;;;;;;;8.40;3.35;;;5.40;99.90;;;;;;5052311;28;20516;-48
2022/11/20 01:01:02;;;;;;;7.95;2.83;;;5.40;99.90;;;;;;5052258;28;20175;-47
2022/11/20 01:03:32;;;;;;;10.20;3.60;;;5.40;99.90;;;;;;5052298;28;20131;-46
2022/11/20 01:06:03;;;;;;;8.23;3.00;;;5.40;99.90;;;;;;5043985;28;20107;-47
2022/11/20 01:08:34;;;;;;;6.13;3.70;;;5.40;99.90;;;;;;5047403;28;20107;-46
2022/11/20 01:11:14;;;;;;;6.00;3.28;;;5.40;99.90;;;;;;5046680;28;20104;-47
2022/11/20 01:13:42;;;;;;;4.25;2.60;;;5.40;99.90;;;;;;5034616;28;20033;-50
2022/11/20 01:16:13;;;;;;;5.72;2.88;;;5.30;99.90;;;;;;5048439;28;20300;-46
2022/11/20 01:18:42;;;;;;;6.97;3.03;;;5.30;99.90;;;;;;5052852;28;20071;-46
2022/11/20 01:21:15;;;;;;;4.22;2.80;;;5.30;99.90;;;;;;5050836;28;20087;-45
2022/11/20 01:23:43;;;;;;;4.40;2.55;;;5.20;99.90;;;;;;5049468;28;20040;-46
2022/11/20 01:26:16;;;;;;;4.97;2.47;;;5.30;99.90;;;;;;5031206;28;20571;-46
2022/11/20 01:28:43;;;;;;;6.82;3.03;;;5.20;99.90;;;;;;5045582;28;20254;-46
2022/11/20 01:31:14;;;;;;;4.00;3.00;;;5.20;99.90;;;;;;5047232;28;20045;-50
2022/11/20 01:33:42;;;;;;;4.47;2.55;;;5.20;99.90;;;;;;5046415;28;20079;-46
2022/11/20 01:36:09;;;;;;;8.98;2.88;;;5.20;99.90;;;;;;5049345;28;20045;-47
2022/11/20 01:38:36;;;;;;;7.03;3.38;;;5.30;99.90;;;;;;5050424;28;20076;-46
2022/11/20 01:41:04;;;;;;;12.15;4.50;;;5.20;99.90;;;;;;5041661;28;20053;-46
2022/11/20 01:43:31;;;;;;;10.35;5.68;;;5.20;99.90;;;;;;5050789;28;20079;-47
2022/11/20 01:46:18;;;;;;;5.40;3.88;;;5.20;99.90;;;;;;5051413;28;20095;-47
2022/11/20 01:49:00;;;;;;;6.25;4.15;;;5.20;99.90;;;;;;5044034;28;20533;-47
2022/11/20 01:51:31;;;;;;;7.85;4.50;;;5.20;99.90;;;;;;5051467;28;20549;-49
2022/11/20 01:54:02;;;;;;;9.40;4.63;;;5.20;99.90;;;;;;5048762;28;20547;-48
2022/11/20 01:56:33;;;;;;;8.00;4.00;;;5.20;99.90;;;;;;5051454;28;20045;-47
2022/11/20 01:59:01;;;;;;;6.15;3.97;;;5.30;99.90;;;;;;5042968;28;20052;-47
2022/11/20 02:01:28;;;;;;;10.88;3.75;;;5.30;99.90;;;;;;5051458;28;20045;-47
2022/11/20 02:03:56;;;;;;;6.82;2.95;;;5.30;99.90;;;;;;5045560;28;20407;-48
2022/11/20 02:06:33;;;;;;;5.28;3.00;;;5.20;99.90;;;;;;5051813;28;20106;-47
2022/11/20 02:09:00;;;;;;;3.40;2.35;;;5.30;99.90;;;;;;5049331;28;20076;-48
2022/11/20 02:11:29;;;;;;;6.97;2.55;;;5.20;99.90;;;;;;5051158;28;20124;-48
2022/11/20 02:13:56;;;;;;;6.60;2.63;;;5.20;99.90;;;;;;5048565;28;20068;-50
2022/11/20 02:16:29;;;;;;;4.85;2.60;;;5.30;99.90;;;;;;5043487;28;20504;-46
2022/11/20 02:18:59;;;;;;;6.00;3.22;;;5.30;99.90;;;;;;5049883;28;20102;-47
2022/11/20 02:21:34;;;;;;;4.88;2.50;;;5.30;99.90;;;;;;5051109;28;20079;-49
2022/11/20 02:24:05;;;;;;;4.50;2.45;;;5.40;99.90;;;;;;5046994;28;20076;-50
2022/11/20 02:26:57;;;;;;;4.28;2.72;;;5.40;99.90;;;;;;5050884;28;20068;-48
2022/11/20 02:29:56;;;;;;;5.10;1.98;;;5.30;99.90;;;;;;5050810;28;20049;-48
2022/11/20 02:32:35;;;;;;;3.90;2.25;;;5.40;99.90;;;;;;5044417;28;20065;-47
2022/11/20 02:35:31;;;;;;;5.35;2.45;;;5.40;99.90;;;;;;5039855;28;20045;-47
2022/11/20 02:38:01;;;;;;;7.10;2.47;;;5.40;99.90;;;;;;5030289;28;20091;-49
2022/11/20 02:40:29;;;;;;;4.20;2.42;;;5.40;99.90;;;;;;5031357;28;20107;-48
2022/11/20 02:42:56;;;;;;;6.90;2.90;;;5.40;99.90;;;;;;5043220;28;20120;-47
2022/11/20 02:45:24;;;;;;;8.35;3.10;;;5.40;99.90;;;;;;5050402;28;20097;-48
2022/11/20 02:47:51;;;;;;;4.30;2.63;;;5.40;99.90;;;;;;5038890;28;20073;-47
2022/11/20 02:50:18;;;;;;;6.80;3.55;;;5.40;99.90;;;;;;5032326;28;20092;-47
2022/11/20 02:52:45;;;;;;;6.82;3.13;;;5.40;99.90;;;;;;5045019;28;20108;-47
2022/11/20 02:55:12;;;;;;;5.03;3.00;;;5.40;99.90;;;;;;5039231;28;20559;-47
2022/11/20 02:57:39;;;;;;;6.75;2.63;;;5.30;99.90;;;;;;5037876;28;20073;-47
2022/11/20 03:00:07;;;;;;;4.95;3.17;;;5.30;99.90;;;;;;5030780;28;20077;-47
2022/11/20 03:02:33;;;;;;;;;;;5.30;99.90;;;;;;5030450;28;20041;-49
2022/11/20 03:05:00;;;;;;;5.53;3.53;;;5.30;99.90;;;;;;5046278;28;19920;-47
2022/11/20 03:07:27;;;;;;;5.90;3.70;;;5.20;99.90;;;;;;5044698;28;20386;-47
2022/11/20 03:09:54;;;;;;;7.60;4.32;;;5.30;99.90;;;;;;5032889;28;20114;-47
2022/11/20 03:12:21;;;;;;;9.23;5.15;;;5.30;99.90;;;;;;5047929;28;20076;-47
2022/11/20 03:14:47;;;;;;;8.63;5.47;;;5.30;99.90;;;;;;5050347;28;20167;-48
2022/11/20 03:17:19;;;;;;;8.40;5.60;;;5.30;99.90;;;;;;5033398;28;20038;-50
2022/11/20 03:19:45;;;;;;;7.45;3.63;;;5.30;99.90;;;;;;5029726;28;20742;-47
2022/11/20 03:22:12;;;;;;;9.88;5.20;;;5.30;99.90;;;;;;5038182;28;20099;-47
2022/11/20 03:24:39;;;;;;;7.13;4.47;;;5.30;99.90;;;;;;5030936;28;20069;-47
2022/11/20 03:27:05;;;;;;;3.20;2.05;;;5.30;99.90;;;;;;5030418;28;20076;-48
2022/11/20 03:29:32;;;;;;;2.70;1.70;;;5.30;99.90;;;;;;5034392;28;20498;-47
2022/11/20 03:31:59;;;;;;;2.03;1.30;;;5.40;99.90;;;;;;5031908;28;20129;-47
2022/11/20 03:34:25;;;;;;;2.15;1.27;;;5.30;99.90;;;;;;5029393;28;20468;-47
2022/11/20 03:36:52;;;;;;;2.03;1.08;;;5.30;99.90;;;;;;5030179;28;20069;-48
2022/11/20 03:39:19;;;;;;;2.38;1.10;;;5.30;99.90;;;;;;5046931;28;20045;-47
2022/11/20 03:41:46;;;;;;;3.33;1.00;;;5.30;99.90;;;;;;5034722;28;20102;-49
2022/11/20 03:44:13;;;;;;;1.63;1.25;;;5.30;99.90;;;;;;5049841;28;20563;-48
2022/11/20 03:46:39;;;;;;;3.30;1.05;;;5.30;99.90;;;;;;5033791;28;20040;-48
2022/11/20 03:49:06;;;;;;;1.40;0.95;;;5.30;99.90;;;;;;5048912;28;20049;-47
2022/11/20 03:51:35;;;;;;;1.23;0.80;;;5.30;99.90;;;;;;5029707;28;20588;-47
2022/11/20 03:54:06;;;;;;;1.15;0.88;;;5.30;99.90;;;;;;5031115;28;20076;-48
2022/11/20 03:56:35;;;;;;;2.53;1.30;;;5.30;99.90;;;;;;5042151;28;20681;-47
2022/11/20 03:59:03;;;;;;;2.78;1.13;;;5.30;99.90;;;;;;5046049;28;20069;-47
2022/11/20 04:01:37;;;;;;;2.83;1.27;;;5.30;99.90;;;;;;5020288;28;20737;-48
2022/11/20 04:04:04;;;;;;;2.88;2.15;;;5.30;99.90;;;;;;5044250;28;20049;-47
2022/11/20 04:06:36;;;;;;;2.03;1.52;;;5.30;99.90;;;;;;5030015;28;20467;-48
2022/11/20 04:09:03;;;;;;;1.40;1.15;;;5.30;99.90;;;;;;5029847;28;20081;-47
2022/11/20 04:11:32;;;;;;;1.40;1.00;;;5.30;99.90;;;;;;5041108;28;20123;-47
2022/11/20 04:14:00;;;;;;;2.92;1.88;;;5.30;99.90;;;;;;5041265;28;20045;-48
2022/11/20 04:16:31;;;;;;;4.80;1.65;;;5.30;99.90;;;;;;5030272;28;20502;-48
2022/11/20 04:19:01;;;;;;;4.07;1.65;;;5.30;99.90;;;;;;5033286;28;20498;-48
2022/11/20 04:21:28;;;;;;;3.13;1.55;;;5.30;99.90;;;;;;5048942;28;20481;-47
2022/11/20 04:23:55;;;;;;;3.92;0.90;;;5.30;99.90;;;;;;5038628;28;20498;-47
2022/11/20 04:26:24;;;;;;;1.35;0.80;;;5.40;99.90;;;;;;5013205;28;20526;-48
2022/11/20 04:28:51;;;;;;;1.80;1.10;;;5.40;99.90;;;;;;5035850;28;20069;-49
2022/11/20 04:31:20;;;;;;;3.45;1.63;;;5.40;99.90;;;;;;5047230;28;20128;-47
2022/11/20 04:33:47;;;;;;;3.25;1.90;;;5.40;99.90;;;;;;5022409;28;20498;-47
2022/11/20 04:36:25;;;;;;;3.45;1.70;;;5.30;99.90;;;;;;5033825;28;20133;-47
2022/11/20 04:38:53;;;;;;;4.68;2.50;;;5.30;99.90;;;;;;5038917;28;20088;-48
2022/11/20 04:41:26;;;;;;;3.78;2.30;;;5.30;99.90;;;;;;5043278;28;20076;-48
2022/11/20 04:44:04;;;;;;;5.93;3.08;;;5.40;99.90;;;;;;5033432;28;20737;-47
2022/11/20 04:46:37;;;;;;;4.97;1.60;;;5.30;99.90;;;;;;5040897;28;20096;-47
2022/11/20 04:49:05;;;;;;;1.33;1.05;;;5.30;99.90;;;;;;5033871;28;20041;-47
2022/11/20 04:51:32;;;;;;;1.67;0.90;;;5.30;99.90;;;;;;5032446;28;20124;-48
2022/11/20 04:53:59;;;;;;;1.10;0.90;;;5.30;99.90;;;;;;5033681;28;20455;-47
2022/11/20 04:56:26;;;;;;;2.90;1.30;;;5.30;99.90;;;;;;5049180;28;20649;-48
2022/11/20 04:58:52;;;;;;;4.28;1.33;;;5.30;99.90;;;;;;5039154;28;20148;-47
2022/11/20 05:01:22;;;;;;;2.42;0.85;;;5.30;99.90;;;;;;5050637;28;20103;-47
2022/11/20 05:03:49;;;;;;;3.03;1.13;;;5.30;99.90;;;;;;5015686;28;20049;-47
2022/11/20 05:06:18;;;;;;;2.25;0.75;;;5.30;99.90;;;;;;5034651;28;21392;-47
2022/11/20 05:08:45;;;;;;;4.80;2.25;;;5.30;99.90;;;;;;5041816;28;20064;-47
2022/11/20 05:11:14;;;;;;;3.53;1.08;;;5.30;99.90;;;;;;5036560;28;20129;-47
2022/11/20 05:13:41;;;;;;;3.83;0.70;;;5.10;99.90;;;;;;5033118;28;20041;-48
2022/11/20 05:16:12;;;;;;;3.10;0.88;;;5.20;99.90;;;;;;5032215;28;20041;-47
2022/11/20 05:18:39;;;;;;;1.02;0.63;;;5.20;99.90;;;;;;5032995;28;20048;-47
2022/11/20 05:21:06;;;;;;;1.30;0.63;;;5.20;99.90;;;;;;5038384;28;20041;-48
2022/11/20 05:23:34;;;;;;;2.20;0.68;;;5.20;99.90;;;;;;5051975;28;20136;-48
2022/11/20 05:26:01;;;;;;;0.85;0.52;;;5.10;99.90;;;;;;5043235;28;20076;-49
2022/11/20 05:28:29;;;;;;;0.68;0.50;;;5.10;99.90;;;;;;5052036;28;20577;-48
2022/11/20 05:31:03;;;;;;;2.38;0.70;;;5.10;99.90;;;;;;5050236;28;20540;-47
2022/11/20 05:33:29;;;;;;;1.23;0.55;;;5.10;99.90;;;;;;5052312;28;20120;-47
2022/11/20 05:35:59;;;;;;;1.63;1.08;;;5.10;99.90;;;;;;5040675;28;20069;-47
2022/11/20 05:38:26;;;;;;;2.80;0.98;;;5.10;99.90;;;;;;5051478;28;20124;-47
2022/11/20 05:40:53;;;;;;;1.15;0.68;;;5.10;99.90;;;;;;5039635;28;20116;-48
2022/11/20 05:43:19;;;;;;;0.93;0.70;;;5.10;99.90;;;;;;5041574;28;20076;-48
2022/11/20 05:45:55;;;;;;;1.13;0.60;;;5.10;99.90;;;;;;5040003;28;20041;-49
2022/11/20 05:48:22;;;;;;;1.55;1.10;;;5.10;99.90;;;;;;5033901;28;20158;-48
2022/11/20 05:50:48;;;;;;;2.45;1.48;;;5.10;99.90;;;;;;5043377;28;20068;-47
2022/11/20 05:53:15;;;;;;;3.20;1.30;;;5.10;99.90;;;;;;5051091;28;20504;-48
2022/11/20 05:55:42;;;;;;;7.60;2.40;;;5.10;99.90;;;;;;5046158;28;20128;-49
2022/11/20 05:58:09;;;;;;;4.15;2.25;;;5.10;99.90;;;;;;5051820;28;20128;-49
2022/11/20 06:00:36;;;;;;;4.70;1.63;;;5.20;99.90;;;;;;5036064;28;20068;-49
2022/11/20 06:03:03;;;;;;;1.33;0.50;;;5.10;99.90;;;;;;5047364;28;20135;-47
2022/11/20 06:05:30;;;;;;;2.47;0.55;;;5.20;99.90;;;;;;5035010;28;20604;-48
2022/11/20 06:07:56;;;;;;;2.05;0.88;;;5.20;99.90;;;;;;5046423;28;20076;-47
2022/11/20 06:10:23;;;;;;;3.47;1.63;;;5.00;99.90;;;;;;5034560;28;20041;-47
2022/11/20 06:12:50;;;;;;;3.13;2.05;;;5.00;99.90;;;;;;5031054;28;20069;-47
2022/11/20 06:15:17;;;;;;;2.35;0.93;;;5.00;99.90;;;;;;5040556;28;20571;-48
2022/11/20 06:17:43;;;;;;;5.47;1.48;;;4.90;99.90;;;;;;5038959;28;20076;-47
2022/11/20 06:20:10;;;;;;;0.88;0.60;;;4.90;99.90;;;;;;5031606;28;20064;-47
2022/11/20 06:22:37;;;;;;;2.58;1.17;;;4.90;99.90;;;;;;5034800;28;20069;-47
2022/11/20 06:25:04;;;;;;;1.70;0.98;;;4.90;99.90;;;;;;5032769;28;20391;-50
2022/11/20 06:27:30;;;;;;;2.03;0.90;;;4.90;99.90;;;;;;5031170;28;20134;-47
2022/11/20 06:29:57;;;;;;;2.42;0.90;;;5.00;99.90;;;;;;5033921;28;20460;-47
2022/11/20 06:32:35;;;;;;;1.98;0.82;;;5.00;99.90;;;;;;5043077;28;20060;-53
2022/11/20 06:35:03;;;;;;;2.78;1.40;;;5.30;99.90;;;;;;5045591;28;20049;-53
2022/11/20 06:37:29;;;;;;;3.20;1.70;;;5.10;99.90;;;;;;5049987;28;20045;-47
2022/11/20 06:39:56;;;;;;;1.35;1.10;;;5.10;99.90;;;;;;5051897;28;20489;-48
2022/11/20 06:42:23;;;;;;;1.23;0.80;;;5.20;99.90;;;;;;5043239;28;20076;-48
2022/11/20 06:44:49;;;;;;;2.35;1.30;;;5.20;99.90;;;;;;5021340;28;20042;-47
2022/11/20 06:47:16;;;;;;;2.13;0.80;;;5.20;99.90;;;;;;5015632;28;20046;-50
2022/11/20 06:49:43;;;;;;;1.85;0.88;;;5.20;99.90;;;;;;5012504;28;20062;-48
2022/11/20 06:52:09;;;;;;;4.82;0.90;;;5.20;99.90;;;;;;5012864;28;20117;-49
2022/11/20 06:54:36;;;;;;;1.35;0.80;;;5.20;99.90;;;;;;5011016;28;20130;-50
2022/11/20 06:57:03;;;;;;;1.65;1.00;;;5.20;99.90;;;;;;5010786;28;20056;-51
2022/11/20 06:59:29;;;;;;;1.30;1.17;;;5.20;99.90;;;;;;5014647;28;20623;-48
2022/11/20 07:01:56;;;;;;;3.75;1.30;;;5.20;99.90;;;;;;5017088;28;20069;-52
2022/11/20 07:04:23;;;;;;;2.67;1.20;;;5.20;99.90;;;;;;5029859;28;20140;-52
2022/11/20 07:06:50;;;;;;;1.63;1.33;;;5.30;99.90;;;;;;5019089;28;20070;-48
2022/11/20 07:09:17;;;;;;;2.13;1.25;;;5.30;99.90;;;;;;5011685;28;20073;-51
2022/11/20 07:11:44;;;;;;;1.60;1.20;;;5.30;99.90;;;;;;5009479;28;20380;-50
2022/11/20 07:14:10;;;;;;;2.30;1.50;;;5.40;99.90;;;;;;5011506;28;20066;-49
2022/11/20 07:16:37;;;;;;;1.27;1.08;;;5.40;99.90;;;;;;5014123;28;20073;-51
2022/11/20 07:19:04;;;;;;;3.00;1.77;;;5.30;99.90;;;;;;5023218;28;20680;-48
2022/11/20 07:21:30;;;;;;;1.95;1.23;;;5.30;99.90;;;;;;5030052;28;20076;-48
2022/11/20 07:23:57;;;;;;;4.47;1.90;;;5.30;99.90;;;;;;5027937;28;20079;-51
2022/11/20 07:26:24;;;;;;;1.48;0.95;;;5.30;99.90;;;;;;5021871;28;20575;-48
2022/11/20 07:28:50;;;;;;;4.85;2.55;;;5.30;99.90;;;;;;5031062;28;20072;-53
2022/11/20 07:31:17;;;;;;;8.43;2.60;;;5.30;99.90;;;;;;5017589;28;20564;-52
2022/11/20 07:33:45;;;;;;;2.13;1.27;;;5.40;99.90;;;;;;5010711;28;20057;-48
2022/11/20 07:36:12;;;;;;;2.50;1.55;;;5.40;99.90;;;;;;5010113;28;20084;-50
2022/11/20 07:38:39;;;;;;;2.78;1.75;;;5.40;99.90;;;;;;5011114;28;20459;-49
2022/11/20 07:41:05;;;;;;;4.90;2.92;;;5.40;99.90;;;;;;5018590;28;20042;-49
2022/11/20 07:43:32;;;;;;;1.88;1.00;;;5.50;99.90;;;;;;5030082;28;20116;-47
2022/11/20 07:46:06;;;;;;;2.17;1.73;;;5.60;99.90;;;;;;5030409;28;20049;-47
2022/11/20 07:48:33;;;;;;;4.00;2.45;;;5.70;99.90;;;;;;5022595;28;20120;-49
2022/11/20 07:50:59;;;;;;;4.85;4.28;;;5.70;99.90;;;;;;5022165;28;20413;-52
2022/11/20 07:53:26;;;;;;;7.85;4.55;;;5.80;99.90;;;;;;5030088;28;20044;-49
2022/11/20 07:55:53;;;;;;;9.15;5.00;;;5.90;99.90;;;;;;5029906;28;20125;-50
2022/11/20 07:58:21;;;;;;;26.17;10.82;;;5.90;99.90;;;;;;5012211;28;20069;-49
2022/11/20 08:00:47;;;;;;;17.38;7.13;;;5.90;99.90;;;;;;5010145;28;20124;-49
2022/11/20 08:03:14;;;;;;;16.13;7.05;;;5.90;99.90;;;;;;5009361;28;20468;-52
2022/11/20 08:05:47;;;;;;;18.10;9.73;;;5.90;99.90;;;;;;5015997;28;20054;-49
2022/11/20 08:08:14;;;;;;;13.88;6.93;;;5.90;99.90;;;;;;5015066;28;20081;-52
2022/11/20 08:10:40;;;;;;;10.63;6.00;;;5.90;99.90;;;;;;5025773;28;20564;-48
2022/11/20 08:15:54;;;;;;;12.88;6.82;;;6.00;99.90;;;;;;5034632;28;20073;-48
2022/11/20 08:18:20;;;;;;;11.55;6.13;;;6.10;99.90;;;;;;5016095;28;20065;-52
2022/11/20 08:21:04;;;;;;;11.18;4.30;;;6.10;99.90;;;;;;5014792;28;20403;-51
2022/11/20 08:23:31;;;;;;;8.35;4.60;;;6.20;99.90;;;;;;5012914;28;20065;-49
2022/11/20 08:25:58;;;;;;;7.80;3.80;;;6.20;99.90;;;;;;5014893;28;20042;-49
2022/11/20 08:28:24;;;;;;;3.22;2.00;;;6.40;99.90;;;;;;5019006;28;20108;-53
2022/11/20 08:30:57;;;;;;;3.13;1.70;;;6.40;99.90;;;;;;5014779;28;20073;-48
2022/11/20 08:33:23;;;;;;;3.13;2.05;;;6.40;99.90;;;;;;5012006;28;20486;-49
2022/11/20 08:35:50;;;;;;;5.20;3.40;;;6.40;99.90;;;;;;5014746;28;20695;-49
2022/11/20 08:38:17;;;;;;;4.28;2.85;;;6.40;99.90;;;;;;5020784;28;20088;-51
2022/11/20 08:41:23;;;;;;;5.10;3.22;;;6.80;99.90;;;;;;5027479;28;20069;-52
2022/11/20 08:43:33;;;;;;;8.57;3.67;;;6.60;99.90;;;;;;5032759;28;20077;-51
2022/11/20 08:46:00;;;;;;;8.38;4.68;;;6.70;99.90;;;;;;5015832;28;20077;-51
2022/11/20 08:48:27;;;;;;;10.85;5.30;;;6.80;99.90;;;;;;5013617;28;20065;-48
2022/11/20 08:50:57;;;;;;;12.35;5.05;;;6.90;99.90;;;;;;5017813;28;20079;-53
2022/11/20 08:53:23;;;;;;;11.10;6.15;;;7.00;99.90;;;;;;5024177;28;20120;-53
2022/11/20 08:55:50;;;;;;;9.63;5.55;;;7.20;99.90;;;;;;5033640;28;20099;-48
2022/11/20 08:58:17;;;;;;;10.73;5.13;;;7.30;99.90;;;;;;5032993;28;20128;-48
2022/11/20 09:00:44;;;;;;;8.07;4.50;;;7.30;99.90;;;;;;5022821;28;20525;-49
2022/11/20 09:03:10;;;;;;;4.03;2.85;;;7.30;99.90;;;;;;5024884;28;20061;-50
2022/11/20 09:05:37;;;;;;;5.07;3.30;;;7.30;99.90;;;;;;5032557;28;20049;-48
2022/11/20 09:08:04;;;;;;;5.00;3.60;;;7.20;99.90;;;;;;5015164;28;20103;-52
2022/11/20 09:10:32;;;;;;;7.00;3.83;;;7.30;99.90;;;;;;5028017;28;20122;-52
2022/11/20 09:12:58;;;;;;;4.70;3.28;;;7.40;99.90;;;;;;5027237;28;20124;-55
2022/11/20 09:15:26;;;;;;;6.65;2.95;;;7.50;99.90;;;;;;5032050;28;20072;-52
2022/11/20 09:17:54;;;;;;;6.22;3.40;;;7.40;99.90;;;;;;5032766;28;20498;-52
2022/11/20 09:20:21;;;;;;;4.35;2.83;;;7.30;99.90;;;;;;5024090;28;20065;-50
2022/11/20 09:22:48;;;;;;;5.45;3.47;;;7.20;99.90;;;;;;5025815;28;20037;-49
2022/11/20 09:25:15;;;;;;;11.43;3.88;;;7.20;99.90;;;;;;5032805;28;20030;-49
2022/11/20 09:27:43;;;;;;;9.68;4.95;;;7.00;99.90;;;;;;5026805;28;20038;-48
2022/11/20 09:30:11;;;;;;;10.35;6.07;;;6.90;99.90;;;;;;5011526;28;20046;-50
2022/11/20 09:32:44;;;;;;;11.18;6.30;;;6.80;99.90;;;;;;5028476;28;20487;-50
2022/11/20 09:35:11;;;;;;;9.95;5.78;;;6.70;99.90;;;;;;5010960;28;20050;-50
2022/11/20 09:37:38;;;;;;;;;;;6.70;99.90;;;;;;5012644;28;20112;-48
2022/11/20 09:40:05;;;;;;;8.82;5.93;;;6.70;99.90;;;;;;5011586;28;19922;-48
2022/11/20 09:42:54;;;;;;;11.55;6.55;;;6.80;99.90;;;;;;5011928;28;20038;-49
2022/11/20 09:45:35;;;;;;;12.57;5.70;;;6.90;99.90;;;;;;5011823;28;20108;-49
2022/11/20 09:48:32;;;;;;;11.15;6.35;;;6.90;99.90;;;;;;5012588;28;20038;-51
2022/11/20 09:51:32;;;;;;;10.25;6.05;;;7.10;99.90;;;;;;5011342;28;20108;-49
2022/11/20 09:54:20;;;;;;;10.18;5.97;;;7.30;99.90;;;;;;5023612;28;20034;-49
2022/11/20 09:56:54;;;;;;;9.40;5.55;;;7.50;99.90;;;;;;5024335;28;20042;-49
2022/11/20 09:59:40;;;;;;;9.82;4.97;;;7.70;99.90;;;;;;5022414;28;20083;-47
2022/11/20 10:02:24;;;;;;;7.95;4.43;;;8.00;99.90;;;;;;5025566;28;20045;-49
2022/11/20 10:05:27;;;;;;;5.78;4.10;;;8.10;99.90;;;;;;5021293;28;20450;-49
2022/11/20 10:08:05;;;;;;;8.73;5.10;;;8.20;99.90;;;;;;5017873;28;20085;-48
2022/11/20 10:10:38;;;;;;;;;;;8.40;99.90;;;;;;5027716;28;20540;-50
2022/11/20 10:14:05;;;;;;;6.22;4.25;;;8.40;99.90;;;;;;5021720;28;19920;-51
2022/11/20 10:16:53;;;;;;;8.13;4.38;;;8.40;99.90;;;;;;4941077;29;20043;-55
2022/11/20 10:19:42;;;;;;;7.93;4.75;;;8.50;99.90;;;;;;5006522;28;20402;-54
2022/11/20 10:22:35;;;;;;;12.68;5.38;;;8.50;99.90;;;;;;5014188;28;20042;-52
2022/11/20 10:25:15;;;;;;;7.40;4.30;;;9.10;99.90;;;;;;5018597;28;20096;-55
2022/11/20 10:28:06;;;;;;;5.93;3.67;;;8.70;99.90;;;;;;5011640;28;20108;-53
2022/11/20 10:30:39;;;;;;;5.95;3.80;;;8.70;99.90;;;;;;5012362;28;20077;-51
2022/11/20 10:33:19;;;;;;;8.98;5.22;;;8.60;99.90;;;;;;5011411;28;20192;-50
2022/11/20 10:36:15;;;;;;;11.50;4.57;;;8.50;99.90;;;;;;5017354;28;20564;-52
2022/11/20 10:38:49;;;;;;;11.65;5.45;;;8.50;99.90;;;;;;5013324;28;20450;-54
2022/11/20 10:41:25;;;;;;;6.22;4.38;;;8.50;99.90;;;;;;5028408;28;20120;-54
2022/11/20 10:45:00;;;;;;;6.63;4.05;;;8.70;99.90;;;;;;5020790;28;20096;-53
2022/11/20 10:47:16;;;;;;;8.57;4.50;;;8.80;99.90;;;;;;5021676;28;20053;-51
2022/11/20 10:49:51;;;;;;;7.97;4.80;;;9.10;99.90;;;;;;5025161;28;20048;-52
2022/11/20 10:52:21;;;;;;;7.10;4.55;;;9.30;99.90;;;;;;5020311;28;20149;-52
2022/11/20 10:55:05;;;;;;;10.43;4.25;;;9.50;99.90;;;;;;5020537;28;20083;-51
2022/11/20 10:57:46;;;;;;;5.45;3.28;;;9.60;99.90;;;;;;5025038;28;20041;-53
2022/11/20 11:00:13;;;;;;;3.45;2.10;;;9.70;99.90;;;;;;5024721;28;20062;-50
2022/11/20 11:02:53;;;;;;;3.45;1.75;;;9.70;99.90;;;;;;5024178;28;20068;-52
2022/11/20 11:05:24;;;;;;;6.70;2.38;;;9.70;99.90;;;;;;5015217;28;20550;-50
2022/11/20 11:07:54;;;;;;;8.55;5.00;;;9.70;99.90;;;;;;5022549;28;20049;-49
2022/11/20 11:10:28;;;;;;;8.55;4.43;;;9.80;99.90;;;;;;5019556;28;20214;-52
2022/11/20 11:12:55;;;;;;;4.70;2.92;;;9.80;99.90;;;;;;5010373;28;20061;-49
2022/11/20 11:15:39;;;;;;;3.35;2.03;;;9.80;99.90;;;;;;5010467;28;20533;-48
2022/11/20 11:18:24;;;;;;;6.07;3.10;;;9.80;99.90;;;;;;5010754;28;20471;-48
2022/11/20 11:20:51;;;;;;;3.92;2.53;;;10.30;99.90;;;;;;5022811;28;20100;-50
2022/11/20 11:23:38;;;;;;;;;;;9.80;99.90;;;;;;5004815;28;20584;-49
2022/11/20 11:26:20;;;;;;;8.38;4.13;;;9.80;99.90;;;;;;5021090;28;20008;-48
2022/11/20 11:28:58;;;;;;;13.00;5.40;;;9.60;99.90;;;;;;5021235;28;20120;-51
2022/11/20 11:31:27;;;;;;;7.32;3.75;;;9.50;99.90;;;;;;5023076;28;20092;-50
2022/11/20 11:34:14;;;;;;;7.38;3.28;;;9.60;99.90;;;;;;5022179;28;20127;-52
2022/11/20 11:36:42;;;;;;;3.55;2.38;;;9.70;99.90;;;;;;5022415;28;20065;-52
2022/11/20 11:39:17;;;;;;;4.57;2.60;;;9.60;99.90;;;;;;5003491;28;20069;-54
2022/11/20 11:41:44;;;;;;;4.53;2.85;;;9.60;99.90;;;;;;5022292;28;20056;-51
2022/11/20 11:47:05;;;;;;;4.63;2.13;;;9.70;99.90;;;;;;5025592;28;20057;-49
2022/11/20 11:49:32;;;;;;;2.83;2.10;;;9.80;99.90;;;;;;5027411;28;20045;-50
2022/11/20 11:52:20;;;;;;;3.55;1.85;;;9.90;99.90;;;;;;5010783;28;20108;-49
2022/11/20 11:54:47;;;;;;;;;;;10.10;99.90;;;;;;5018192;28;20604;-49
2022/11/20 11:57:22;;;;;;;8.88;5.07;;;10.30;99.90;;;;;;5028533;28;19972;-51
2022/11/20 12:00:04;;;;;;;5.88;3.72;;;10.30;99.90;;;;;;5029690;28;20084;-50
2022/11/20 12:02:49;;;;;;;7.93;3.85;;;10.40;99.90;;;;;;5012041;28;20053;-49
2022/11/20 12:05:25;;;;;;;8.13;4.50;;;10.40;99.90;;;;;;5010217;28;20042;-50
2022/11/20 12:08:10;;;;;;;7.18;3.97;;;10.40;99.90;;;;;;5011102;28;20548;-53
2022/11/20 12:10:47;;;;;;;5.38;3.30;;;10.30;99.90;;;;;;5022305;28;20640;-50
2022/11/20 12:13:32;;;;;;;6.63;3.30;;;10.10;99.90;;;;;;5021818;28;20119;-53
2022/11/20 12:16:01;;;;;;;4.60;3.22;;;10.10;99.90;;;;;;5030320;28;20034;-48
2022/11/20 12:18:28;;;;;;;4.93;3.40;;;10.20;99.90;;;;;;5011628;28;20068;-55
2022/11/20 12:21:21;;;;;;;6.35;3.72;;;10.20;99.90;;;;;;5025196;28;20125;-50
2022/11/20 12:24:13;;;;;;;6.60;4.05;;;10.20;99.90;;;;;;5014265;28;20066;-52
2022/11/20 12:26:45;;;;;;;3.63;2.65;;;10.30;99.90;;;;;;5024846;28;20102;-52
2022/11/20 12:29:34;;;;;;;5.60;3.75;;;10.50;99.90;;;;;;5021376;28;20448;-49
2022/11/20 12:32:18;;;;;;;8.10;4.78;;;10.60;99.90;;;;;;5028673;28;20103;-52
2022/11/20 12:35:17;;;;;;;6.15;3.95;;;10.70;99.90;;;;;;5028266;28;20502;-53
2022/11/20 12:38:26;;;;;;;10.90;5.47;;;10.70;99.90;;;;;;5013141;28;20390;-53
2022/11/20 12:40:59;;;;;;;10.07;3.72;;;10.80;99.90;;;;;;5027727;28;20045;-54
2022/11/20 12:46:58;;;;;;;5.30;2.22;;;10.80;99.90;;;;;;5023976;28;20045;-49
2022/11/20 12:49:41;;;;;;;2.37;1.90;;;10.80;99.90;;;;;;5005426;28;20184;-48
2022/11/20 12:52:24;;;;;;;3.53;2.20;;;10.70;99.90;;;;;;5020235;28;20117;-53
2022/11/20 12:54:56;;;;;;;2.97;1.70;;;10.60;99.90;;;;;;5026156;28;20457;-51
2022/11/20 12:58:04;;;;;;;1.98;1.42;;;10.50;99.90;;;;;;5030211;28;20652;-52
2022/11/20 13:00:34;;;;;;;3.00;1.77;;;10.40;99.90;;;;;;5030696;28;20084;-45
2022/11/20 13:07:15;;;;;;;5.22;2.65;;;10.20;99.90;;;;;;5031191;28;20120;-46
2022/11/20 13:09:48;;;;;;;7.05;3.28;;;9.90;99.90;;;;;;4996131;28;20042;-46
2022/11/20 13:12:33;;;;;;;5.47;2.97;;;9.80;99.90;;;;;;5009618;28;20470;-46
2022/11/20 13:15:28;;;;;;;3.90;2.30;;;9.80;99.90;;;;;;5011545;28;20466;-46
2022/11/20 13:17:59;;;;;;;5.22;2.05;;;9.90;99.90;;;;;;5002797;28;20105;-45
2022/11/20 13:20:29;;;;;;;1.58;1.20;;;9.80;99.90;;;;;;5002104;28;20077;-46
2022/11/20 13:22:59;;;;;;;5.35;2.50;;;9.60;99.90;;;;;;5012312;28;20072;-46
2022/11/20 13:25:31;;;;;;;4.65;2.22;;;9.50;99.90;;;;;;5012826;28;20476;-46
2022/11/20 13:28:24;;;;;;;5.72;2.67;;;9.40;99.90;;;;;;5012100;28;20077;-46
2022/11/20 13:30:53;;;;;;;5.05;2.50;;;9.40;99.90;;;;;;5006201;28;20136;-46
2022/11/20 13:33:33;;;;;;;5.55;2.70;;;9.40;99.90;;;;;;5012763;28;20495;-46